sensor_id;sensor_type;location;lat;lon;timestamp;P1;durP1;ratioP1;P2;durP2;ratioP2
10122;SDS011;5101;49.038;8.710;2022-07-23T00:00:09;6.38;;;5.78;;
10122;SDS011;5101;49.038;8.710;2022-07-23T00:02:35;5.85;;;5.35;;
10122;SDS011;5101;49.038;8.710;2022-07-23T00:05:02;6.35;;;5.82;;
10122;SDS011;5101;49.038;8.710;2022-07-23T00:07:28;6.18;;;5.72;;
10122;SDS011;5101;49.038;8.710;2022-07-23T00:09:53;7.10;;;5.75;;
10122;SDS011;5101;49.038;8.710;2022-07-23T00:12:19;6.68;;;6.03;;
10122;SDS011;5101;49.038;8.710;2022-07-23T00:14:45;6.38;;;5.78;;
10122;SDS011;5101;49.038;8.710;2022-07-23T00:17:10;7.18;;;6.05;;
10122;SDS011;5101;49.038;8.710;2022-07-23T00:19:36;6.10;;;5.65;;
10122;SDS011;5101;49.038;8.710;2022-07-23T00:22:01;6.38;;;5.82;;
10122;SDS011;5101;49.038;8.710;2022-07-23T00:24:27;8.88;;;5.85;;
10122;SDS011;5101;49.038;8.710;2022-07-23T00:26:53;6.65;;;6.05;;
10122;SDS011;5101;49.038;8.710;2022-07-23T00:29:18;6.15;;;5.65;;
10122;SDS011;5101;49.038;8.710;2022-07-23T00:31:44;6.22;;;5.72;;
10122;SDS011;5101;49.038;8.710;2022-07-23T00:34:09;6.82;;;6.13;;
10122;SDS011;5101;49.038;8.710;2022-07-23T00:36:35;8.00;;;5.88;;
10122;SDS011;5101;49.038;8.710;2022-07-23T00:39:00;6.20;;;5.70;;
10122;SDS011;5101;49.038;8.710;2022-07-23T00:41:26;6.47;;;5.95;;
10122;SDS011;5101;49.038;8.710;2022-07-23T00:43:52;7.07;;;5.90;;
10122;SDS011;5101;49.038;8.710;2022-07-23T00:46:21;6.68;;;6.05;;
10122;SDS011;5101;49.038;8.710;2022-07-23T00:48:47;6.63;;;6.07;;
10122;SDS011;5101;49.038;8.710;2022-07-23T00:51:14;6.35;;;5.72;;
10122;SDS011;5101;49.038;8.710;2022-07-23T00:53:41;6.65;;;6.03;;
10122;SDS011;5101;49.038;8.710;2022-07-23T00:56:07;7.53;;;5.70;;
10122;SDS011;5101;49.038;8.710;2022-07-23T00:58:33;6.68;;;6.18;;
10122;SDS011;5101;49.038;8.710;2022-07-23T01:01:00;7.10;;;6.28;;
10122;SDS011;5101;49.038;8.710;2022-07-23T01:03:26;6.55;;;5.85;;
10122;SDS011;5101;49.038;8.710;2022-07-23T01:05:52;6.13;;;5.72;;
10122;SDS011;5101;49.038;8.710;2022-07-23T01:08:18;6.25;;;5.28;;
10122;SDS011;5101;49.038;8.710;2022-07-23T01:10:44;5.90;;;5.13;;
10122;SDS011;5101;49.038;8.710;2022-07-23T01:13:12;5.90;;;5.40;;
10122;SDS011;5101;49.038;8.710;2022-07-23T01:15:38;5.70;;;5.20;;
10122;SDS011;5101;49.038;8.710;2022-07-23T01:18:04;6.22;;;5.72;;
10122;SDS011;5101;49.038;8.710;2022-07-23T01:20:31;7.93;;;5.38;;
10122;SDS011;5101;49.038;8.710;2022-07-23T01:22:58;5.82;;;5.13;;
10122;SDS011;5101;49.038;8.710;2022-07-23T01:25:24;5.97;;;5.00;;
10122;SDS011;5101;49.038;8.710;2022-07-23T01:27:50;6.93;;;5.40;;
10122;SDS011;5101;49.038;8.710;2022-07-23T01:30:17;5.45;;;5.05;;
10122;SDS011;5101;49.038;8.710;2022-07-23T01:32:43;5.55;;;4.80;;
10122;SDS011;5101;49.038;8.710;2022-07-23T01:35:08;5.25;;;4.75;;
10122;SDS011;5101;49.038;8.710;2022-07-23T01:37:36;4.78;;;4.47;;
10122;SDS011;5101;49.038;8.710;2022-07-23T01:40:03;5.05;;;4.68;;
10122;SDS011;5101;49.038;8.710;2022-07-23T01:42:30;5.20;;;4.70;;
10122;SDS011;5101;49.038;8.710;2022-07-23T01:44:55;4.88;;;4.47;;
10122;SDS011;5101;49.038;8.710;2022-07-23T01:47:21;5.45;;;4.50;;
10122;SDS011;5101;49.038;8.710;2022-07-23T01:49:47;4.97;;;4.57;;
10122;SDS011;5101;49.038;8.710;2022-07-23T01:52:12;5.15;;;4.68;;
10122;SDS011;5101;49.038;8.710;2022-07-23T01:54:38;5.15;;;4.47;;
10122;SDS011;5101;49.038;8.710;2022-07-23T01:57:04;6.95;;;4.30;;
10122;SDS011;5101;49.038;8.710;2022-07-23T01:59:31;5.65;;;4.70;;
10122;SDS011;5101;49.038;8.710;2022-07-23T02:01:56;5.55;;;4.78;;
10122;SDS011;5101;49.038;8.710;2022-07-23T02:04:23;4.95;;;4.55;;
10122;SDS011;5101;49.038;8.710;2022-07-23T02:06:49;5.47;;;4.80;;
10122;SDS011;5101;49.038;8.710;2022-07-23T02:09:16;6.40;;;4.80;;
10122;SDS011;5101;49.038;8.710;2022-07-23T02:11:42;5.88;;;4.80;;
10122;SDS011;5101;49.038;8.710;2022-07-23T02:14:08;5.32;;;4.93;;
10122;SDS011;5101;49.038;8.710;2022-07-23T02:16:34;8.38;;;5.00;;
10122;SDS011;5101;49.038;8.710;2022-07-23T02:19:00;7.28;;;5.20;;
10122;SDS011;5101;49.038;8.710;2022-07-23T02:21:25;5.70;;;5.20;;
10122;SDS011;5101;49.038;8.710;2022-07-23T02:23:51;8.13;;;5.00;;
10122;SDS011;5101;49.038;8.710;2022-07-23T02:26:16;6.75;;;5.30;;
10122;SDS011;5101;49.038;8.710;2022-07-23T02:28:42;6.10;;;5.60;;
10122;SDS011;5101;49.038;8.710;2022-07-23T02:31:08;8.50;;;5.53;;
10122;SDS011;5101;49.038;8.710;2022-07-23T02:33:33;5.63;;;5.15;;
10122;SDS011;5101;49.038;8.710;2022-07-23T02:35:59;6.85;;;5.22;;
10122;SDS011;5101;49.038;8.710;2022-07-23T02:38:25;6.07;;;5.47;;
10122;SDS011;5101;49.038;8.710;2022-07-23T02:40:51;5.82;;;5.32;;
10122;SDS011;5101;49.038;8.710;2022-07-23T02:43:16;5.75;;;5.10;;
10122;SDS011;5101;49.038;8.710;2022-07-23T02:45:42;8.52;;;5.93;;
10122;SDS011;5101;49.038;8.710;2022-07-23T02:48:08;6.25;;;5.57;;
10122;SDS011;5101;49.038;8.710;2022-07-23T02:50:33;6.50;;;5.97;;
10122;SDS011;5101;49.038;8.710;2022-07-23T02:52:59;6.10;;;5.40;;
10122;SDS011;5101;49.038;8.710;2022-07-23T02:55:24;5.65;;;5.20;;
10122;SDS011;5101;49.038;8.710;2022-07-23T02:57:50;7.60;;;6.35;;
10122;SDS011;5101;49.038;8.710;2022-07-23T03:00:16;6.20;;;5.75;;
10122;SDS011;5101;49.038;8.710;2022-07-23T03:02:41;6.60;;;6.00;;
10122;SDS011;5101;49.038;8.710;2022-07-23T03:05:07;6.25;;;5.68;;
10122;SDS011;5101;49.038;8.710;2022-07-23T03:07:33;6.45;;;5.85;;
10122;SDS011;5101;49.038;8.710;2022-07-23T03:09:59;7.40;;;6.03;;
10122;SDS011;5101;49.038;8.710;2022-07-23T03:12:24;7.18;;;6.00;;
10122;SDS011;5101;49.038;8.710;2022-07-23T03:14:50;7.90;;;5.72;;
10122;SDS011;5101;49.038;8.710;2022-07-23T03:17:16;5.55;;;5.13;;
10122;SDS011;5101;49.038;8.710;2022-07-23T03:19:41;6.60;;;5.57;;
10122;SDS011;5101;49.038;8.710;2022-07-23T03:22:07;6.55;;;6.05;;
10122;SDS011;5101;49.038;8.710;2022-07-23T03:24:33;6.80;;;6.05;;
10122;SDS011;5101;49.038;8.710;2022-07-23T03:27:17;6.22;;;5.63;;
10122;SDS011;5101;49.038;8.710;2022-07-23T03:29:42;6.35;;;5.93;;
10122;SDS011;5101;49.038;8.710;2022-07-23T03:32:08;6.30;;;5.80;;
10122;SDS011;5101;49.038;8.710;2022-07-23T03:34:34;6.07;;;5.68;;
10122;SDS011;5101;49.038;8.710;2022-07-23T03:37:00;6.30;;;5.70;;
10122;SDS011;5101;49.038;8.710;2022-07-23T03:39:25;6.28;;;5.53;;
10122;SDS011;5101;49.038;8.710;2022-07-23T03:41:51;6.65;;;6.00;;
10122;SDS011;5101;49.038;8.710;2022-07-23T03:44:17;6.43;;;5.82;;
10122;SDS011;5101;49.038;8.710;2022-07-23T03:46:42;7.28;;;6.00;;
10122;SDS011;5101;49.038;8.710;2022-07-23T03:49:08;8.25;;;5.57;;
10122;SDS011;5101;49.038;8.710;2022-07-23T03:51:33;6.18;;;5.25;;
10122;SDS011;5101;49.038;8.710;2022-07-23T03:53:58;5.93;;;5.40;;
10122;SDS011;5101;49.038;8.710;2022-07-23T03:56:24;6.78;;;5.43;;
10122;SDS011;5101;49.038;8.710;2022-07-23T03:58:50;6.57;;;6.07;;
10122;SDS011;5101;49.038;8.710;2022-07-23T04:01:16;6.53;;;5.93;;
10122;SDS011;5101;49.038;8.710;2022-07-23T04:03:42;5.97;;;5.57;;
10122;SDS011;5101;49.038;8.710;2022-07-23T04:06:07;6.00;;;5.38;;
10122;SDS011;5101;49.038;8.710;2022-07-23T04:08:33;7.00;;;5.85;;
10122;SDS011;5101;49.038;8.710;2022-07-23T04:10:58;5.85;;;5.18;;
10122;SDS011;5101;49.038;8.710;2022-07-23T04:13:24;7.60;;;5.78;;
10122;SDS011;5101;49.038;8.710;2022-07-23T04:15:49;5.97;;;5.43;;
10122;SDS011;5101;49.038;8.710;2022-07-23T04:18:15;5.38;;;4.88;;
10122;SDS011;5101;49.038;8.710;2022-07-23T04:20:46;5.70;;;4.32;;
10122;SDS011;5101;49.038;8.710;2022-07-23T04:23:12;5.35;;;4.88;;
10122;SDS011;5101;49.038;8.710;2022-07-23T04:25:38;5.38;;;4.88;;
10122;SDS011;5101;49.038;8.710;2022-07-23T04:28:03;5.57;;;5.07;;
10122;SDS011;5101;49.038;8.710;2022-07-23T04:30:29;5.13;;;4.72;;
10122;SDS011;5101;49.038;8.710;2022-07-23T04:32:54;6.97;;;4.75;;
10122;SDS011;5101;49.038;8.710;2022-07-23T04:35:20;6.43;;;5.25;;
10122;SDS011;5101;49.038;8.710;2022-07-23T04:37:45;4.63;;;4.32;;
10122;SDS011;5101;49.038;8.710;2022-07-23T04:40:12;5.85;;;5.30;;
10122;SDS011;5101;49.038;8.710;2022-07-23T04:42:38;5.57;;;5.07;;
10122;SDS011;5101;49.038;8.710;2022-07-23T04:45:03;5.50;;;5.10;;
10122;SDS011;5101;49.038;8.710;2022-07-23T04:47:29;5.15;;;4.75;;
10122;SDS011;5101;49.038;8.710;2022-07-23T04:49:55;5.32;;;4.82;;
10122;SDS011;5101;49.038;8.710;2022-07-23T04:52:21;6.25;;;5.07;;
10122;SDS011;5101;49.038;8.710;2022-07-23T04:54:47;5.55;;;5.15;;
10122;SDS011;5101;49.038;8.710;2022-07-23T04:57:12;5.80;;;5.25;;
10122;SDS011;5101;49.038;8.710;2022-07-23T04:59:38;5.57;;;5.07;;
10122;SDS011;5101;49.038;8.710;2022-07-23T05:02:03;6.25;;;4.90;;
10122;SDS011;5101;49.038;8.710;2022-07-23T05:04:29;5.95;;;4.82;;
10122;SDS011;5101;49.038;8.710;2022-07-23T05:06:56;5.50;;;5.00;;
10122;SDS011;5101;49.038;8.710;2022-07-23T05:09:22;6.07;;;5.47;;
10122;SDS011;5101;49.038;8.710;2022-07-23T05:11:47;5.30;;;4.82;;
10122;SDS011;5101;49.038;8.710;2022-07-23T05:14:13;5.10;;;4.60;;
10122;SDS011;5101;49.038;8.710;2022-07-23T05:16:38;4.70;;;4.40;;
10122;SDS011;5101;49.038;8.710;2022-07-23T05:19:04;5.68;;;4.85;;
10122;SDS011;5101;49.038;8.710;2022-07-23T05:21:29;9.85;;;5.43;;
10122;SDS011;5101;49.038;8.710;2022-07-23T05:23:55;6.45;;;5.20;;
10122;SDS011;5101;49.038;8.710;2022-07-23T05:26:20;5.35;;;4.80;;
10122;SDS011;5101;49.038;8.710;2022-07-23T05:28:46;4.95;;;4.55;;
10122;SDS011;5101;49.038;8.710;2022-07-23T05:31:11;4.82;;;4.35;;
10122;SDS011;5101;49.038;8.710;2022-07-23T05:33:37;6.90;;;4.47;;
10122;SDS011;5101;49.038;8.710;2022-07-23T05:36:03;5.00;;;4.47;;
10122;SDS011;5101;49.038;8.710;2022-07-23T05:38:29;5.00;;;4.57;;
10122;SDS011;5101;49.038;8.710;2022-07-23T05:40:56;4.75;;;4.35;;
10122;SDS011;5101;49.038;8.710;2022-07-23T05:43:21;5.60;;;4.20;;
10122;SDS011;5101;49.038;8.710;2022-07-23T05:45:47;4.72;;;4.32;;
10122;SDS011;5101;49.038;8.710;2022-07-23T05:48:12;4.90;;;4.53;;
10122;SDS011;5101;49.038;8.710;2022-07-23T05:50:38;5.05;;;4.25;;
10122;SDS011;5101;49.038;8.710;2022-07-23T05:53:03;4.72;;;4.32;;
10122;SDS011;5101;49.038;8.710;2022-07-23T05:55:29;4.50;;;4.20;;
10122;SDS011;5101;49.038;8.710;2022-07-23T05:57:56;6.88;;;3.70;;
10122;SDS011;5101;49.038;8.710;2022-07-23T06:00:22;4.93;;;4.25;;
10122;SDS011;5101;49.038;8.710;2022-07-23T06:02:47;4.75;;;4.35;;
10122;SDS011;5101;49.038;8.710;2022-07-23T06:05:13;4.75;;;4.45;;
10122;SDS011;5101;49.038;8.710;2022-07-23T06:07:39;4.75;;;4.43;;
10122;SDS011;5101;49.038;8.710;2022-07-23T06:10:04;4.80;;;3.85;;
10122;SDS011;5101;49.038;8.710;2022-07-23T06:12:30;4.93;;;4.53;;
10122;SDS011;5101;49.038;8.710;2022-07-23T06:14:56;4.53;;;4.13;;
10122;SDS011;5101;49.038;8.710;2022-07-23T06:17:22;4.63;;;4.32;;
10122;SDS011;5101;49.038;8.710;2022-07-23T06:19:47;5.45;;;4.18;;
10122;SDS011;5101;49.038;8.710;2022-07-23T06:22:13;7.13;;;4.35;;
10122;SDS011;5101;49.038;8.710;2022-07-23T06:24:38;5.78;;;5.20;;
10122;SDS011;5101;49.038;8.710;2022-07-23T06:27:04;5.25;;;4.70;;
10122;SDS011;5101;49.038;8.710;2022-07-23T06:29:29;7.35;;;4.82;;
10122;SDS011;5101;49.038;8.710;2022-07-23T06:31:55;9.35;;;5.70;;
10122;SDS011;5101;49.038;8.710;2022-07-23T06:34:20;6.13;;;5.45;;
10122;SDS011;5101;49.038;8.710;2022-07-23T06:36:46;8.50;;;5.85;;
10122;SDS011;5101;49.038;8.710;2022-07-23T06:39:11;6.20;;;5.40;;
10122;SDS011;5101;49.038;8.710;2022-07-23T06:41:37;5.63;;;5.13;;
10122;SDS011;5101;49.038;8.710;2022-07-23T06:44:02;5.95;;;5.40;;
10122;SDS011;5101;49.038;8.710;2022-07-23T06:46:28;7.75;;;5.00;;
10122;SDS011;5101;49.038;8.710;2022-07-23T06:48:54;7.95;;;5.00;;
10122;SDS011;5101;49.038;8.710;2022-07-23T06:51:19;6.82;;;4.97;;
10122;SDS011;5101;49.038;8.710;2022-07-23T06:53:45;6.22;;;5.40;;
10122;SDS011;5101;49.038;8.710;2022-07-23T06:56:10;6.00;;;5.43;;
10122;SDS011;5101;49.038;8.710;2022-07-23T06:58:36;4.88;;;4.47;;
10122;SDS011;5101;49.038;8.710;2022-07-23T07:01:01;5.65;;;5.10;;
10122;SDS011;5101;49.038;8.710;2022-07-23T07:03:27;5.57;;;5.07;;
10122;SDS011;5101;49.038;8.710;2022-07-23T07:05:52;5.45;;;5.00;;
10122;SDS011;5101;49.038;8.710;2022-07-23T07:08:18;8.02;;;5.43;;
10122;SDS011;5101;49.038;8.710;2022-07-23T07:10:44;5.97;;;5.30;;
10122;SDS011;5101;49.038;8.710;2022-07-23T07:13:09;5.78;;;5.20;;
10122;SDS011;5101;49.038;8.710;2022-07-23T07:15:35;5.55;;;5.13;;
10122;SDS011;5101;49.038;8.710;2022-07-23T07:18:00;5.35;;;4.90;;
10122;SDS011;5101;49.038;8.710;2022-07-23T07:20:26;6.88;;;5.00;;
10122;SDS011;5101;49.038;8.710;2022-07-23T07:22:51;7.18;;;5.20;;
10122;SDS011;5101;49.038;8.710;2022-07-23T07:25:17;5.25;;;4.70;;
10122;SDS011;5101;49.038;8.710;2022-07-23T07:27:42;5.07;;;4.57;;
10122;SDS011;5101;49.038;8.710;2022-07-23T07:30:09;5.80;;;5.30;;
10122;SDS011;5101;49.038;8.710;2022-07-23T07:32:35;5.55;;;5.15;;
10122;SDS011;5101;49.038;8.710;2022-07-23T07:35:02;4.80;;;4.40;;
10122;SDS011;5101;49.038;8.710;2022-07-23T07:37:28;4.53;;;4.22;;
10122;SDS011;5101;49.038;8.710;2022-07-23T07:39:54;6.72;;;4.78;;
10122;SDS011;5101;49.038;8.710;2022-07-23T07:42:19;5.28;;;4.57;;
10122;SDS011;5101;49.038;8.710;2022-07-23T07:44:45;4.50;;;4.10;;
10122;SDS011;5101;49.038;8.710;2022-07-23T07:47:10;5.70;;;4.97;;
10122;SDS011;5101;49.038;8.710;2022-07-23T07:49:36;6.25;;;5.05;;
10122;SDS011;5101;49.038;8.710;2022-07-23T07:52:02;5.85;;;4.53;;
10122;SDS011;5101;49.038;8.710;2022-07-23T07:54:28;5.55;;;4.97;;
10122;SDS011;5101;49.038;8.710;2022-07-23T07:56:53;5.40;;;4.93;;
10122;SDS011;5101;49.038;8.710;2022-07-23T07:59:19;5.32;;;4.82;;
10122;SDS011;5101;49.038;8.710;2022-07-23T08:01:44;5.38;;;4.97;;
10122;SDS011;5101;49.038;8.710;2022-07-23T08:04:10;6.30;;;4.82;;
10122;SDS011;5101;49.038;8.710;2022-07-23T08:06:35;5.00;;;4.50;;
10122;SDS011;5101;49.038;8.710;2022-07-23T08:09:01;5.55;;;4.47;;
10122;SDS011;5101;49.038;8.710;2022-07-23T08:11:26;4.30;;;4.00;;
10122;SDS011;5101;49.038;8.710;2022-07-23T08:13:52;5.55;;;4.22;;
10122;SDS011;5101;49.038;8.710;2022-07-23T08:16:17;4.88;;;4.47;;
10122;SDS011;5101;49.038;8.710;2022-07-23T08:18:43;4.38;;;4.07;;
10122;SDS011;5101;49.038;8.710;2022-07-23T08:21:08;4.28;;;3.88;;
10122;SDS011;5101;49.038;8.710;2022-07-23T08:23:34;4.10;;;3.80;;
10122;SDS011;5101;49.038;8.710;2022-07-23T08:26:00;4.10;;;3.63;;
10122;SDS011;5101;49.038;8.710;2022-07-23T08:28:26;4.20;;;3.90;;
10122;SDS011;5101;49.038;8.710;2022-07-23T08:30:51;4.30;;;4.00;;
10122;SDS011;5101;49.038;8.710;2022-07-23T08:33:17;4.80;;;4.05;;
10122;SDS011;5101;49.038;8.710;2022-07-23T08:35:44;4.60;;;4.30;;
10122;SDS011;5101;49.038;8.710;2022-07-23T08:38:13;4.32;;;3.92;;
10122;SDS011;5101;49.038;8.710;2022-07-23T08:40:40;4.22;;;3.92;;
10122;SDS011;5101;49.038;8.710;2022-07-23T08:43:09;4.55;;;4.13;;
10122;SDS011;5101;49.038;8.710;2022-07-23T08:45:40;4.38;;;3.97;;
10122;SDS011;5101;49.038;8.710;2022-07-23T08:48:08;4.65;;;4.20;;
10122;SDS011;5101;49.038;8.710;2022-07-23T08:50:36;4.72;;;4.20;;
10122;SDS011;5101;49.038;8.710;2022-07-23T08:53:04;6.15;;;4.13;;
10122;SDS011;5101;49.038;8.710;2022-07-23T08:55:31;5.80;;;4.15;;
10122;SDS011;5101;49.038;8.710;2022-07-23T08:57:56;4.20;;;3.80;;
10122;SDS011;5101;49.038;8.710;2022-07-23T09:00:22;5.28;;;4.03;;
10122;SDS011;5101;49.038;8.710;2022-07-23T09:02:48;4.57;;;4.15;;
10122;SDS011;5101;49.038;8.710;2022-07-23T09:05:14;8.00;;;3.97;;
10122;SDS011;5101;49.038;8.710;2022-07-23T09:10:55;4.07;;;3.78;;
10122;SDS011;5101;49.038;8.710;2022-07-23T09:13:29;4.47;;;3.50;;
10122;SDS011;5101;49.038;8.710;2022-07-23T09:15:56;3.65;;;3.42;;
10122;SDS011;5101;49.038;8.710;2022-07-23T09:18:33;5.03;;;3.95;;
10122;SDS011;5101;49.038;8.710;2022-07-23T09:24:12;4.07;;;3.70;;
10122;SDS011;5101;49.038;8.710;2022-07-23T09:26:43;4.78;;;4.15;;
10122;SDS011;5101;49.038;8.710;2022-07-23T09:36:49;6.55;;;4.53;;
10122;SDS011;5101;49.038;8.710;2022-07-23T09:39:22;4.40;;;4.00;;
10122;SDS011;5101;49.038;8.710;2022-07-23T09:44:46;4.38;;;4.07;;
10122;SDS011;5101;49.038;8.710;2022-07-23T09:47:13;4.88;;;4.38;;
10122;SDS011;5101;49.038;8.710;2022-07-23T09:49:39;4.05;;;3.80;;
10122;SDS011;5101;49.038;8.710;2022-07-23T09:52:04;4.35;;;4.05;;
10122;SDS011;5101;49.038;8.710;2022-07-23T09:54:31;4.82;;;3.72;;
10122;SDS011;5101;49.038;8.710;2022-07-23T09:59:41;3.92;;;3.72;;
10122;SDS011;5101;49.038;8.710;2022-07-23T10:02:09;4.28;;;3.97;;
10122;SDS011;5101;49.038;8.710;2022-07-23T10:04:40;10.95;;;3.95;;
10122;SDS011;5101;49.038;8.710;2022-07-23T10:07:07;5.53;;;4.70;;
10122;SDS011;5101;49.038;8.710;2022-07-23T10:09:36;5.13;;;4.72;;
10122;SDS011;5101;49.038;8.710;2022-07-23T10:12:04;4.72;;;4.30;;
10122;SDS011;5101;49.038;8.710;2022-07-23T10:14:34;57.97;;;10.23;;
10122;SDS011;5101;49.038;8.710;2022-07-23T10:17:03;4.97;;;4.47;;
10122;SDS011;5101;49.038;8.710;2022-07-23T10:19:29;4.95;;;4.55;;
10122;SDS011;5101;49.038;8.710;2022-07-23T10:21:57;4.88;;;4.57;;
10122;SDS011;5101;49.038;8.710;2022-07-23T10:24:30;5.57;;;5.03;;
10122;SDS011;5101;49.038;8.710;2022-07-23T10:29:47;6.75;;;5.10;;
10122;SDS011;5101;49.038;8.710;2022-07-23T10:32:26;5.72;;;5.20;;
10122;SDS011;5101;49.038;8.710;2022-07-23T10:37:41;5.55;;;5.18;;
10122;SDS011;5101;49.038;8.710;2022-07-23T10:40:13;5.53;;;5.13;;
10122;SDS011;5101;49.038;8.710;2022-07-23T10:42:39;5.57;;;5.03;;
10122;SDS011;5101;49.038;8.710;2022-07-23T10:45:27;5.22;;;4.82;;
10122;SDS011;5101;49.038;8.710;2022-07-23T10:47:51;6.13;;;5.68;;
10122;SDS011;5101;49.038;8.710;2022-07-23T10:50:24;5.88;;;5.25;;
10122;SDS011;5101;49.038;8.710;2022-07-23T10:57:56;7.25;;;5.32;;
10122;SDS011;5101;49.038;8.710;2022-07-23T11:00:26;6.03;;;5.47;;
10122;SDS011;5101;49.038;8.710;2022-07-23T11:02:57;5.65;;;5.25;;
10122;SDS011;5101;49.038;8.710;2022-07-23T11:05:41;6.03;;;5.63;;
10122;SDS011;5101;49.038;8.710;2022-07-23T11:10:43;6.47;;;5.97;;
10122;SDS011;5101;49.038;8.710;2022-07-23T11:16:04;6.40;;;5.90;;
10122;SDS011;5101;49.038;8.710;2022-07-23T11:31:54;8.48;;;5.95;;
10122;SDS011;5101;49.038;8.710;2022-07-23T11:34:36;5.00;;;4.60;;
10122;SDS011;5101;49.038;8.710;2022-07-23T11:37:07;5.50;;;5.10;;
10122;SDS011;5101;49.038;8.710;2022-07-23T11:39:34;5.53;;;5.13;;
10122;SDS011;5101;49.038;8.710;2022-07-23T11:42:01;4.88;;;4.50;;
10122;SDS011;5101;49.038;8.710;2022-07-23T11:44:34;5.28;;;4.88;;
10122;SDS011;5101;49.038;8.710;2022-07-23T11:49:33;4.15;;;3.83;;
10122;SDS011;5101;49.038;8.710;2022-07-23T11:52:09;3.92;;;3.72;;
10122;SDS011;5101;49.038;8.710;2022-07-23T11:54:47;4.18;;;3.88;;
10122;SDS011;5101;49.038;8.710;2022-07-23T11:57:24;4.75;;;4.35;;
10122;SDS011;5101;49.038;8.710;2022-07-23T11:59:55;4.00;;;3.60;;
10122;SDS011;5101;49.038;8.710;2022-07-23T12:02:23;4.47;;;4.18;;
10122;SDS011;5101;49.038;8.710;2022-07-23T12:04:50;4.45;;;4.15;;
10122;SDS011;5101;49.038;8.710;2022-07-23T12:07:27;3.97;;;3.67;;
10122;SDS011;5101;49.038;8.710;2022-07-23T12:12:35;4.70;;;4.30;;
10122;SDS011;5101;49.038;8.710;2022-07-23T12:15:03;6.43;;;4.70;;
10122;SDS011;5101;49.038;8.710;2022-07-23T12:17:31;5.30;;;4.90;;
10122;SDS011;5101;49.038;8.710;2022-07-23T12:20:01;5.75;;;4.72;;
10122;SDS011;5101;49.038;8.710;2022-07-23T12:22:34;6.45;;;4.35;;
10122;SDS011;5101;49.038;8.710;2022-07-23T12:25:04;4.95;;;4.65;;
10122;SDS011;5101;49.038;8.710;2022-07-23T12:27:35;4.93;;;4.47;;
10122;SDS011;5101;49.038;8.710;2022-07-23T12:30:14;5.25;;;4.60;;
10122;SDS011;5101;49.038;8.710;2022-07-23T12:32:49;5.75;;;5.28;;
10122;SDS011;5101;49.038;8.710;2022-07-23T12:35:16;5.95;;;5.45;;
10122;SDS011;5101;49.038;8.710;2022-07-23T12:37:43;5.70;;;5.25;;
10122;SDS011;5101;49.038;8.710;2022-07-23T12:40:26;5.28;;;4.97;;
10122;SDS011;5101;49.038;8.710;2022-07-23T12:43:05;6.10;;;5.50;;
10122;SDS011;5101;49.038;8.710;2022-07-23T12:45:51;5.85;;;5.35;;
10122;SDS011;5101;49.038;8.710;2022-07-23T12:50:53;5.53;;;5.13;;
10122;SDS011;5101;49.038;8.710;2022-07-23T12:53:22;6.32;;;5.82;;
10122;SDS011;5101;49.038;8.710;2022-07-23T12:55:58;5.43;;;5.03;;
10122;SDS011;5101;49.038;8.710;2022-07-23T12:58:26;7.13;;;5.55;;
10122;SDS011;5101;49.038;8.710;2022-07-23T13:05:55;6.10;;;5.18;;
10122;SDS011;5101;49.038;8.710;2022-07-23T13:08:22;5.47;;;5.07;;
10122;SDS011;5101;49.038;8.710;2022-07-23T13:10:48;5.45;;;5.05;;
10122;SDS011;5101;49.038;8.710;2022-07-23T13:13:16;5.93;;;5.38;;
10122;SDS011;5101;49.038;8.710;2022-07-23T13:15:42;7.35;;;6.03;;
10122;SDS011;5101;49.038;8.710;2022-07-23T13:18:08;5.82;;;5.43;;
10122;SDS011;5101;49.038;8.710;2022-07-23T13:20:34;5.18;;;4.78;;
10122;SDS011;5101;49.038;8.710;2022-07-23T13:23:00;6.20;;;5.53;;
10122;SDS011;5101;49.038;8.710;2022-07-23T13:25:26;5.38;;;5.07;;
10122;SDS011;5101;49.038;8.710;2022-07-23T13:27:51;5.53;;;5.03;;
10122;SDS011;5101;49.038;8.710;2022-07-23T13:30:17;5.20;;;4.65;;
10122;SDS011;5101;49.038;8.710;2022-07-23T13:32:43;5.30;;;5.00;;
10122;SDS011;5101;49.038;8.710;2022-07-23T13:35:08;5.45;;;4.95;;
10122;SDS011;5101;49.038;8.710;2022-07-23T13:37:34;5.28;;;4.75;;
10122;SDS011;5101;49.038;8.710;2022-07-23T13:40:00;5.40;;;4.95;;
10122;SDS011;5101;49.038;8.710;2022-07-23T13:42:26;5.38;;;4.97;;
10122;SDS011;5101;49.038;8.710;2022-07-23T13:44:52;5.13;;;4.72;;
10122;SDS011;5101;49.038;8.710;2022-07-23T13:47:18;5.05;;;4.65;;
10122;SDS011;5101;49.038;8.710;2022-07-23T13:49:43;5.10;;;4.63;;
10122;SDS011;5101;49.038;8.710;2022-07-23T13:52:09;7.30;;;4.90;;
10122;SDS011;5101;49.038;8.710;2022-07-23T13:54:34;4.95;;;4.55;;
10122;SDS011;5101;49.038;8.710;2022-07-23T13:57:00;5.22;;;4.78;;
10122;SDS011;5101;49.038;8.710;2022-07-23T13:59:26;5.55;;;5.15;;
10122;SDS011;5101;49.038;8.710;2022-07-23T14:01:52;6.82;;;4.57;;
10122;SDS011;5101;49.038;8.710;2022-07-23T14:04:18;5.45;;;4.97;;
10122;SDS011;5101;49.038;8.710;2022-07-23T14:06:43;5.75;;;5.25;;
10122;SDS011;5101;49.038;8.710;2022-07-23T14:09:09;5.68;;;5.28;;
10122;SDS011;5101;49.038;8.710;2022-07-23T14:11:34;5.63;;;5.13;;
10122;SDS011;5101;49.038;8.710;2022-07-23T14:14:00;5.88;;;5.38;;
10122;SDS011;5101;49.038;8.710;2022-07-23T14:16:26;5.57;;;4.75;;
10122;SDS011;5101;49.038;8.710;2022-07-23T14:18:51;5.70;;;5.30;;
10122;SDS011;5101;49.038;8.710;2022-07-23T14:21:17;5.38;;;4.97;;
10122;SDS011;5101;49.038;8.710;2022-07-23T14:23:42;5.28;;;4.78;;
10122;SDS011;5101;49.038;8.710;2022-07-23T14:26:08;4.93;;;4.63;;
10122;SDS011;5101;49.038;8.710;2022-07-23T14:28:33;5.00;;;4.70;;
10122;SDS011;5101;49.038;8.710;2022-07-23T14:30:59;5.00;;;4.60;;
10122;SDS011;5101;49.038;8.710;2022-07-23T14:33:25;4.85;;;4.45;;
10122;SDS011;5101;49.038;8.710;2022-07-23T14:35:51;4.65;;;4.28;;
10122;SDS011;5101;49.038;8.710;2022-07-23T14:38:17;4.45;;;4.15;;
10122;SDS011;5101;49.038;8.710;2022-07-23T14:40:42;5.05;;;4.65;;
10122;SDS011;5101;49.038;8.710;2022-07-23T14:43:08;5.05;;;4.72;;
10122;SDS011;5101;49.038;8.710;2022-07-23T14:45:33;4.80;;;4.50;;
10122;SDS011;5101;49.038;8.710;2022-07-23T14:47:59;6.00;;;4.68;;
10122;SDS011;5101;49.038;8.710;2022-07-23T14:50:27;8.57;;;4.72;;
10122;SDS011;5101;49.038;8.710;2022-07-23T14:52:52;4.57;;;4.15;;
10122;SDS011;5101;49.038;8.710;2022-07-23T14:55:18;4.68;;;4.28;;
10122;SDS011;5101;49.038;8.710;2022-07-23T14:57:44;4.95;;;4.50;;
10122;SDS011;5101;49.038;8.710;2022-07-23T15:00:09;5.05;;;4.55;;
10122;SDS011;5101;49.038;8.710;2022-07-23T15:02:35;5.90;;;4.65;;
10122;SDS011;5101;49.038;8.710;2022-07-23T15:05:01;5.50;;;5.10;;
10122;SDS011;5101;49.038;8.710;2022-07-23T15:07:27;5.53;;;5.13;;
10122;SDS011;5101;49.038;8.710;2022-07-23T15:09:54;5.03;;;4.55;;
10122;SDS011;5101;49.038;8.710;2022-07-23T15:12:19;4.88;;;4.47;;
10122;SDS011;5101;49.038;8.710;2022-07-23T15:14:45;4.95;;;4.55;;
10122;SDS011;5101;49.038;8.710;2022-07-23T15:17:10;5.60;;;5.05;;
10122;SDS011;5101;49.038;8.710;2022-07-23T15:19:36;4.97;;;4.63;;
10122;SDS011;5101;49.038;8.710;2022-07-23T15:22:01;5.60;;;5.05;;
10122;SDS011;5101;49.038;8.710;2022-07-23T15:24:27;6.45;;;5.18;;
10122;SDS011;5101;49.038;8.710;2022-07-23T15:26:52;6.20;;;5.70;;
10122;SDS011;5101;49.038;8.710;2022-07-23T15:29:18;5.40;;;5.00;;
10122;SDS011;5101;49.038;8.710;2022-07-23T15:31:43;5.45;;;5.03;;
10122;SDS011;5101;49.038;8.710;2022-07-23T15:34:09;5.40;;;4.70;;
10122;SDS011;5101;49.038;8.710;2022-07-23T15:36:34;5.03;;;4.72;;
10122;SDS011;5101;49.038;8.710;2022-07-23T15:39:00;5.18;;;4.72;;
10122;SDS011;5101;49.038;8.710;2022-07-23T15:41:25;5.60;;;5.20;;
10122;SDS011;5101;49.038;8.710;2022-07-23T15:43:51;6.47;;;5.15;;
10122;SDS011;5101;49.038;8.710;2022-07-23T15:46:17;5.88;;;4.53;;
10122;SDS011;5101;49.038;8.710;2022-07-23T15:48:43;5.75;;;4.88;;
10122;SDS011;5101;49.038;8.710;2022-07-23T15:51:11;5.50;;;5.00;;
10122;SDS011;5101;49.038;8.710;2022-07-23T15:53:36;7.55;;;5.75;;
10122;SDS011;5101;49.038;8.710;2022-07-23T15:56:03;6.50;;;5.53;;
10122;SDS011;5101;49.038;8.710;2022-07-23T15:58:30;19.52;;;6.78;;